Terminal Aerodrome Forecast
Issued by NWS Springfield, MO

Home | Current Version | Previous Version | Text Only | Print | Product List | Glossary On
Versions: 1 2 3 4 5 6 7 8 9 10 11 12
487
FTUS43 KSGF 291720
TAFSGF
TAF
KSGF 291720Z 2918/3018 10007KT P6SM SCT200
     FM300100 VRB04KT P6SM SCT250
     FM301400 13004KT P6SM BKN200=

USA.gov is the U.S. government's official web portal to all federal, state and local government web resources and services.